Time;durP1;ratioP1;P1;durP2;ratioP2;P2;SDS_P1;SDS_P2;PMS_P1;PMS_P2;Temp;Humidity;BMP_temperature;BMP_pressure;BME280_temperature;BME280_humidity;BME280_pressure;Samples;Min_cycle;Max_cycle;Signal;HPM_P1;HPM_P2
2022/11/19 00:01:27;;;;;;;1.58;1.48;;;;;;;22.88;35.24;101958.88;4204595;28;20461;-69
2022/11/19 00:03:31;;;;;;;1.45;1.30;;;;;;;22.83;35.10;101962.47;4202402;28;20094;-69
2022/11/19 00:05:41;;;;;;;1.63;1.48;;;;;;;22.88;35.10;101972.00;4204633;28;20040;-70
2022/11/19 00:07:42;;;;;;;1.40;1.30;;;;;;;22.88;35.22;101989.56;4206037;28;20483;-68
2022/11/19 00:09:43;;;;;;;3.15;1.48;;;;;;;22.73;35.28;101968.00;4205768;28;20027;-68
2022/11/19 00:14:19;;;;;;;9.85;2.22;;;;;;;22.86;34.69;101963.03;4207245;28;20153;-69
2022/11/19 00:16:21;;;;;;;2.95;1.50;;;;;;;22.86;35.00;101974.19;4201667;28;20036;-69
2022/11/19 00:18:22;;;;;;;3.90;1.67;;;;;;;22.86;34.79;101985.34;4205554;28;20035;-69
2022/11/19 00:20:24;;;;;;;2.58;1.42;;;;;;;22.85;34.62;102012.44;4205524;28;20487;-70
2022/11/19 00:22:30;;;;;;;5.32;1.58;;;;;;;22.81;35.01;102006.53;4206642;28;20036;-69
2022/11/19 00:24:32;;;;;;;3.45;1.55;;;;;;;22.83;34.81;102012.69;4206186;28;20105;-69
2022/11/19 00:26:33;;;;;;;1.88;1.50;;;;;;;22.85;34.87;102023.59;4206864;28;20109;-68
2022/11/19 00:28:38;;;;;;;2.20;1.60;;;;;;;22.86;34.99;102024.44;4210315;28;20062;-68
2022/11/19 00:30:39;;;;;;;;;;;;;;;22.85;34.53;102029.16;4204823;28;20049;-68
2022/11/19 00:32:40;;;;;;;2.28;1.50;;;;;;;22.92;34.63;102023.41;4209006;28;20570;-68
2022/11/19 00:34:42;;;;;;;1.27;1.17;;;;;;;22.75;34.38;101996.44;4209109;28;20081;-67
2022/11/19 00:36:43;;;;;;;2.22;1.73;;;;;;;22.90;34.55;102023.66;4213922;28;20048;-68
2022/11/19 00:38:44;;;;;;;1.77;1.33;;;;;;;22.88;34.65;102023.06;4212073;28;20039;-69
2022/11/19 00:40:45;;;;;;;1.92;1.50;;;;;;;22.88;34.59;102033.38;4213406;28;20487;-69
2022/11/19 00:45:08;;;;;;;2.28;1.30;;;;;;;22.79;34.38;102019.09;4201046;28;20058;-68
2022/11/19 00:47:09;;;;;;;2.97;1.30;;;;;;;22.81;34.56;102034.44;4206488;28;20094;-69
2022/11/19 00:49:10;;;;;;;3.03;1.65;;;;;;;22.86;34.82;102049.53;4202804;28;20041;-69
2022/11/19 00:51:12;;;;;;;1.70;1.60;;;;;;;22.86;34.62;102052.34;4205010;28;20032;-68
2022/11/19 00:53:13;;;;;;;2.53;1.30;;;;;;;22.87;34.66;102056.84;4205326;28;20044;-68
2022/11/19 00:55:15;;;;;;;3.60;1.48;;;;;;;22.87;35.05;102065.22;4201805;28;20036;-69
2022/11/19 00:57:16;;;;;;;1.63;1.52;;;;;;;22.88;34.90;102072.47;4204990;28;20479;-69
2022/11/19 00:59:17;;;;;;;2.35;1.27;;;;;;;22.87;34.57;102068.84;4208304;28;20040;-68
2022/11/19 01:01:21;;;;;;;3.00;1.35;;;;;;;22.88;34.82;102078.03;4211534;28;20032;-69
2022/11/19 01:03:23;;;;;;;2.63;1.00;;;;;;;22.87;34.71;102081.94;4212511;28;20048;-68
2022/11/19 01:05:27;;;;;;;1.35;1.25;;;;;;;22.89;34.72;102077.81;4201236;28;20541;-67
2022/11/19 01:07:28;;;;;;;1.30;1.20;;;;;;;22.91;35.10;102091.47;4204297;28;20036;-69
2022/11/19 01:09:32;;;;;;;3.67;1.40;;;;;;;22.91;35.15;102088.69;4204223;28;20037;-68
2022/11/19 01:11:35;;;;;;;2.50;1.13;;;;;;;22.92;35.25;102093.19;4201017;28;20033;-68
2022/11/19 01:13:40;;;;;;;2.10;1.25;;;;;;;22.93;35.15;102098.50;4201411;28;20106;-68
2022/11/19 01:15:49;;;;;;;2.33;1.50;;;;;;;22.71;35.25;102059.47;4207908;28;20094;-68
2022/11/19 01:17:50;;;;;;;1.90;1.48;;;;;;;22.96;35.31;102102.72;4205162;28;20044;-68
2022/11/19 01:19:51;;;;;;;1.48;1.00;;;;;;;22.95;35.14;102115.81;4213964;28;20040;-68
2022/11/19 01:21:53;;;;;;;1.58;1.42;;;;;;;22.93;35.12;102108.81;4207398;28;20540;-68
2022/11/19 01:23:54;;;;;;;2.55;1.58;;;;;;;22.95;35.54;102118.59;4213107;28;20483;-68
2022/11/19 01:26:01;;;;;;;1.55;1.45;;;;;;;22.96;35.46;102106.34;4213675;28;20556;-69
2022/11/19 01:28:09;;;;;;;1.35;1.20;;;;;;;22.93;35.13;102108.81;4213661;28;20479;-68
2022/11/19 01:30:11;;;;;;;1.20;1.10;;;;;;;22.96;35.49;102113.88;4203640;28;20120;-69
2022/11/19 01:32:15;;;;;;;2.38;1.30;;;;;;;22.95;35.56;102117.75;4212168;28;20173;-69
2022/11/19 01:34:16;;;;;;;1.73;1.35;;;;;;;22.96;35.45;102119.47;4208156;28;20040;-69
2022/11/19 01:36:26;;;;;;;2.92;1.52;;;;;;;22.95;35.16;102109.38;4213621;28;20054;-69
2022/11/19 01:38:28;;;;;;;3.17;1.23;;;;;;;22.95;35.52;102109.38;4209216;28;20097;-68
2022/11/19 01:40:30;;;;;;;2.53;1.55;;;;;;;22.96;35.50;102114.72;4216856;28;20401;-68
2022/11/19 01:42:49;;;;;;;1.85;1.10;;;;;;;22.96;35.41;102114.72;4215735;28;20040;-67
2022/11/19 01:45:07;;;;;;;1.63;1.40;;;;;;;22.96;35.17;102119.47;4208042;28;20047;-68
2022/11/19 01:47:08;;;;;;;1.88;1.60;;;;;;;23.00;34.99;102115.00;4215440;28;20181;-66
2022/11/19 01:49:15;;;;;;;2.15;1.30;;;;;;;22.97;35.19;102109.97;4214682;28;20048;-68
2022/11/19 01:51:25;;;;;;;1.30;1.20;;;;;;;23.00;35.27;102120.59;4202309;28;20047;-67
2022/11/19 01:53:37;;;;;;;1.77;1.48;;;;;;;22.99;35.10;102122.53;4216697;28;20193;-67
2022/11/19 01:55:40;;;;;;;1.48;1.23;;;;;;;23.00;35.46;102126.16;4204761;28;20113;-67
2022/11/19 01:57:47;;;;;;;1.83;1.55;;;;;;;22.86;35.31;102105.38;4210292;28;20089;-65
2022/11/19 01:59:50;;;;;;;1.60;1.50;;;;;;;22.99;35.42;102130.91;4214235;28;20024;-68
2022/11/19 02:01:52;;;;;;;1.60;1.35;;;;;;;22.99;35.51;102125.31;4215655;28;20040;-68
2022/11/19 02:03:56;;;;;;;2.33;1.40;;;;;;;22.98;35.07;102126.44;4216504;28;20490;-69
2022/11/19 02:06:00;;;;;;;1.38;1.20;;;;;;;22.98;35.52;102129.22;4215053;28;20040;-69
2022/11/19 02:08:07;;;;;;;2.88;1.40;;;;;;;22.97;35.48;102127.56;4216429;28;20141;-66
2022/11/19 02:10:09;;;;;;;2.03;1.13;;;;;;;22.92;35.33;102124.72;4215289;28;20036;-67
2022/11/19 02:12:37;;;;;;;1.40;1.30;;;;;;;22.95;35.42;102123.34;4207903;28;20048;-67
2022/11/19 02:14:57;;;;;;;1.42;1.33;;;;;;;22.95;35.21;102128.91;4207651;28;20440;-68
2022/11/19 02:17:10;;;;;;;1.90;1.73;;;;;;;22.95;35.21;102131.72;4215099;28;20040;-68
2022/11/19 02:19:45;;;;;;;1.45;1.35;;;;;;;22.93;35.28;102136.72;4215355;28;20097;-67
2022/11/19 02:22:04;;;;;;;1.15;1.05;;;;;;;22.93;35.40;102132.00;4216370;28;20368;-68
2022/11/19 02:24:24;;;;;;;2.13;1.65;;;;;;;22.94;35.08;102138.41;4215284;28;20487;-67
2022/11/19 02:27:05;;;;;;;1.77;1.40;;;;;;;22.92;35.14;102140.63;4214708;28;20052;-70
2022/11/19 02:29:15;;;;;;;2.33;1.63;;;;;;;22.94;34.99;102133.66;4209013;28;20105;-67
2022/11/19 02:31:48;;;;;;;2.25;1.25;;;;;;;22.92;35.14;102140.63;4203432;28;20524;-67
2022/11/19 02:33:55;;;;;;;3.20;1.45;;;;;;;22.91;35.00;102142.59;4199608;28;20040;-68
2022/11/19 02:36:22;;;;;;;1.95;1.70;;;;;;;22.87;34.94;102143.34;4214562;28;20097;-67
2022/11/19 02:38:35;;;;;;;2.80;1.63;;;;;;;22.88;34.66;102133.88;4187912;28;20391;-67
2022/11/19 02:40:49;;;;;;;1.80;1.63;;;;;;;22.88;34.60;102133.88;4215932;28;20449;-69
2022/11/19 02:43:08;;;;;;;1.35;1.17;;;;;;;22.89;34.50;102138.34;4213026;28;20048;-68
2022/11/19 02:45:18;;;;;;;2.53;1.50;;;;;;;22.72;34.31;102125.34;4211724;28;20047;-68
2022/11/19 02:47:43;;;;;;;2.85;1.63;;;;;;;22.71;34.43;102112.50;4207779;28;20133;-68
2022/11/19 02:49:45;;;;;;;1.55;1.42;;;;;;;22.87;34.29;102148.94;4203855;28;20048;-68
2022/11/19 02:51:49;;;;;;;1.60;1.50;;;;;;;22.85;34.35;102151.97;4215771;28;20113;-69
2022/11/19 02:53:51;;;;;;;1.85;1.40;;;;;;;22.60;34.36;102116.31;4214523;28;20036;-69
2022/11/19 02:56:11;;;;;;;1.90;1.55;;;;;;;22.84;34.46;102156.72;4214918;28;20093;-68
2022/11/19 03:05:43;;;;;;;3.70;1.80;;;;;;;22.67;34.26;102139.25;4216815;28;20097;-68
2022/11/19 03:07:45;;;;;;;2.55;1.50;;;;;;;22.75;34.60;102149.94;4214913;28;20036;-67
2022/11/19 03:09:53;;;;;;;4.38;1.60;;;;;;;22.80;34.18;102171.47;4215315;28;20074;-67
2022/11/19 03:12:20;;;;;;;1.50;1.40;;;;;;;22.79;34.42;102175.38;4214091;28;20044;-67
2022/11/19 03:17:07;;;;;;;1.70;1.50;;;;;;;22.74;34.19;102178.09;4212482;28;20548;-69
2022/11/19 03:19:30;;;;;;;9.02;2.05;;;;;;;22.82;34.03;102180.44;4198170;28;20418;-68
2022/11/19 03:21:37;;;;;;;5.68;1.75;;;;;;;22.84;34.83;102173.47;4200697;28;20107;-69
2022/11/19 03:23:50;;;;;;;1.85;1.35;;;;;;;22.80;34.40;102186.25;4205850;28;20105;-68
2022/11/19 03:26:08;;;;;;;5.32;1.38;;;;;;;22.80;34.97;102182.63;4197916;28;20044;-67
2022/11/19 03:28:15;;;;;;;2.40;1.55;;;;;;;22.86;35.09;102175.97;4197702;28;20056;-68
2022/11/19 03:30:18;;;;;;;1.48;1.38;;;;;;;22.88;35.04;102184.09;4197725;28;20040;-68
2022/11/19 03:32:28;;;;;;;2.47;1.85;;;;;;;22.86;34.47;102184.34;4198016;28;20045;-68
2022/11/19 03:34:32;;;;;;;3.47;1.55;;;;;;;22.88;34.32;102186.91;4205862;28;20039;-72
2022/11/19 03:36:39;;;;;;;3.05;1.60;;;;;;;22.85;34.55;102179.88;4208527;28;20052;-70
2022/11/19 03:38:45;;;;;;;2.00;1.45;;;;;;;22.86;34.98;102186.31;4212342;28;20040;-67
2022/11/19 03:40:48;;;;;;;5.05;1.95;;;;;;;22.86;35.29;102191.88;4206276;28;20040;-67
2022/11/19 03:42:53;;;;;;;2.67;1.50;;;;;;;22.78;35.18;102180.09;4209258;28;20105;-69
2022/11/19 03:44:59;;;;;;;3.13;1.45;;;;;;;22.89;35.33;102196.94;4212386;28;20113;-69
2022/11/19 03:47:08;;;;;;;7.18;1.60;;;;;;;22.89;35.16;102194.16;4210163;28;20487;-67
2022/11/19 03:49:12;;;;;;;3.38;1.58;;;;;;;22.90;35.07;102198.66;4207112;28;20074;-69
2022/11/19 03:51:27;;;;;;;3.83;1.55;;;;;;;22.47;35.30;102127.88;4210837;28;20121;-68
2022/11/19 03:53:28;;;;;;;;;;;;;;;22.86;35.14;102191.88;4207158;28;20052;-66
2022/11/19 03:55:38;;;;;;;3.33;1.90;;;;;;;22.90;35.00;102193.06;4206303;28;19922;-69
2022/11/19 03:57:42;;;;;;;2.65;1.50;;;;;;;22.76;34.92;102171.13;4210531;28;20044;-70
2022/11/19 03:59:45;;;;;;;6.60;2.20;;;;;;;22.92;34.86;102196.47;4212815;28;20101;-69
2022/11/19 04:01:49;;;;;;;6.78;2.03;;;;;;;22.92;35.02;102191.72;4210940;28;20093;-67
2022/11/19 04:06:12;;;;;;;2.58;1.88;;;;;;;22.90;34.95;102204.25;4211529;28;20066;-67
2022/11/19 04:08:14;;;;;;;1.77;1.63;;;;;;;22.68;34.85;102174.44;4209070;28;20093;-67
2022/11/19 04:10:15;;;;;;;2.20;1.73;;;;;;;22.90;34.81;102198.66;4211491;28;20040;-69
2022/11/19 04:12:21;;;;;;;2.00;1.30;;;;;;;22.89;35.09;102196.94;4207932;28;20109;-69
2022/11/19 04:14:23;;;;;;;3.88;1.63;;;;;;;22.80;34.88;102199.38;4210819;28;20483;-67
2022/11/19 04:16:27;;;;;;;2.42;1.73;;;;;;;22.72;34.83;102192.31;4202843;28;20047;-71
2022/11/19 04:18:28;;;;;;;2.75;1.83;;;;;;;22.38;34.67;102147.03;4213766;28;20090;-69
2022/11/19 04:20:32;;;;;;;2.55;1.52;;;;;;;22.89;34.90;102236.03;4213549;28;20105;-71
2022/11/19 04:22:33;;;;;;;1.73;1.60;;;;;;;22.89;34.98;102236.03;4213382;28;20477;-71
2022/11/19 04:24:35;;;;;;;4.55;1.70;;;;;;;22.88;34.96;102228.75;4213256;28;20460;-69
2022/11/19 04:26:36;;;;;;;2.00;1.80;;;;;;;22.88;34.71;102226.81;4210351;28;20062;-69
2022/11/19 04:28:37;;;;;;;2.30;1.58;;;;;;;22.88;34.83;102231.56;4202520;28;20040;-69
2022/11/19 04:30:39;;;;;;;2.35;1.50;;;;;;;22.87;34.82;102227.09;4200013;28;20040;-69
2022/11/19 04:32:41;;;;;;;6.00;1.73;;;;;;;22.87;34.71;102233.50;4206831;28;20036;-68
2022/11/19 04:34:45;;;;;;;2.85;1.75;;;;;;;22.80;34.84;102230.91;4202625;28;20093;-69
2022/11/19 04:36:46;;;;;;;2.67;1.80;;;;;;;22.72;34.64;102213.78;4213414;28;20101;-70
2022/11/19 04:38:47;;;;;;;4.95;1.90;;;;;;;22.86;34.81;102242.97;4213723;28;20028;-69
2022/11/19 04:40:49;;;;;;;2.58;1.40;;;;;;;22.84;34.57;102246.03;4213309;28;20446;-68
2022/11/19 04:42:50;;;;;;;2.38;1.50;;;;;;;22.82;34.89;102248.25;4213837;28;20040;-68
2022/11/19 04:44:51;;;;;;;4.53;1.75;;;;;;;22.83;34.73;102260.25;4209066;28;20153;-68
2022/11/19 04:46:52;;;;;;;3.25;1.50;;;;;;;22.84;34.66;102256.34;4202419;28;20094;-67
2022/11/19 04:48:54;;;;;;;1.98;1.58;;;;;;;22.69;34.93;102248.66;4208664;28;20040;-69
2022/11/19 04:50:55;;;;;;;4.15;1.50;;;;;;;22.83;34.62;102271.41;4196928;28;20040;-68
2022/11/19 04:52:57;;;;;;;2.30;1.75;;;;;;;22.80;34.53;102267.19;4197119;28;20078;-69
2022/11/19 04:55:02;;;;;;;3.30;1.52;;;;;;;22.83;34.28;102283.41;4197099;28;20122;-69
2022/11/19 04:57:03;;;;;;;1.85;1.65;;;;;;;22.80;34.56;102271.94;4206435;28;20048;-69
2022/11/19 04:59:04;;;;;;;3.95;1.60;;;;;;;22.80;34.60;102278.34;4212922;28;20043;-69
2022/11/19 05:01:09;;;;;;;2.55;2.00;;;;;;;22.77;34.51;102266.84;4213844;28;20463;-69
2022/11/19 05:03:10;;;;;;;2.97;1.60;;;;;;;22.84;34.59;102281.47;4196181;28;20489;-69
2022/11/19 05:05:11;;;;;;;3.78;1.70;;;;;;;22.66;34.77;102262.28;4197042;28;20070;-69
2022/11/19 05:07:13;;;;;;;2.17;1.60;;;;;;;22.86;34.54;102286.78;4195711;28;20094;-69
2022/11/19 05:09:14;;;;;;;4.30;1.60;;;;;;;22.82;34.64;102284.53;4196769;28;20437;-69
2022/11/19 05:11:18;;;;;;;2.67;1.48;;;;;;;22.84;34.31;102279.50;4196743;28;20121;-70
2022/11/19 05:13:22;;;;;;;2.90;1.87;;;;;;;22.85;34.55;102288.72;4199713;28;20032;-69
2022/11/19 05:15:23;;;;;;;5.00;2.03;;;;;;;22.84;34.24;102285.09;4212880;28;20272;-69
2022/11/19 05:17:25;;;;;;;3.70;1.75;;;;;;;22.76;34.40;102277.19;4211178;28;20437;-69
2022/11/19 05:19:29;;;;;;;1.88;1.55;;;;;;;22.82;34.32;102281.75;4206611;28;20040;-69
2022/11/19 05:21:30;;;;;;;2.17;1.73;;;;;;;22.83;34.41;102289.00;4211354;28;20032;-69
2022/11/19 05:23:34;;;;;;;4.82;1.50;;;;;;;22.73;34.24;102276.88;4213307;28;20036;-68
2022/11/19 05:25:35;;;;;;;2.80;1.58;;;;;;;22.80;34.27;102295.09;4216587;28;20048;-68
2022/11/19 05:27:37;;;;;;;3.30;1.95;;;;;;;22.80;34.24;102286.72;4216313;28;20086;-71
2022/11/19 05:29:38;;;;;;;2.42;1.60;;;;;;;22.70;34.25;102264.28;4216966;28;20077;-68
2022/11/19 05:31:42;;;;;;;3.58;1.63;;;;;;;22.76;34.52;102282.75;4216226;28;20069;-70
2022/11/19 05:33:44;;;;;;;2.70;1.38;;;;;;;22.77;34.64;102283.59;4216484;28;20040;-69
2022/11/19 05:35:45;;;;;;;1.40;1.30;;;;;;;22.76;34.28;102282.75;4212296;28;20487;-68
2022/11/19 05:37:50;;;;;;;1.40;1.30;;;;;;;22.72;34.17;102291.91;4204385;28;20447;-68
2022/11/19 05:39:51;;;;;;;2.05;1.70;;;;;;;22.68;34.42;102288.84;4209970;28;20041;-69
2022/11/19 05:41:52;;;;;;;2.72;1.77;;;;;;;22.72;34.21;102306.72;4199854;28;20032;-69
2022/11/19 05:43:54;;;;;;;2.42;1.58;;;;;;;22.61;34.44;102282.59;4199823;28;20044;-68
2022/11/19 05:45:59;;;;;;;2.45;1.70;;;;;;;22.69;34.28;102293.31;4198703;28;20044;-68
2022/11/19 05:48:00;;;;;;;2.55;1.90;;;;;;;22.67;34.19;102289.06;4198867;28;20098;-69
2022/11/19 05:50:04;;;;;;;1.50;1.40;;;;;;;22.22;34.50;102215.75;4199754;28;20445;-68
2022/11/19 05:52:06;;;;;;;1.90;1.33;;;;;;;22.64;34.75;102290.44;4199643;28;20056;-68
2022/11/19 05:54:09;;;;;;;3.63;1.63;;;;;;;22.54;34.54;102276.34;4204067;28;20037;-68
2022/11/19 05:56:11;;;;;;;1.45;1.23;;;;;;;22.62;34.69;102286.22;4216258;27;20097;-68
2022/11/19 05:58:15;;;;;;;1.98;1.33;;;;;;;22.61;34.56;102293.75;4215668;28;20062;-68
2022/11/19 06:00:17;;;;;;;1.67;1.40;;;;;;;22.62;34.73;102280.63;4216170;28;20028;-69
2022/11/19 06:02:18;;;;;;;1.52;1.35;;;;;;;22.61;34.65;102296.53;4216464;28;20048;-69
2022/11/19 06:04:19;;;;;;;1.42;1.33;;;;;;;22.58;34.53;102302.63;4216058;28;20093;-69
2022/11/19 06:06:21;;;;;;;1.77;1.40;;;;;;;22.48;34.72;102285.78;4214998;28;20032;-68
2022/11/19 06:08:23;;;;;;;3.28;1.45;;;;;;;22.57;34.81;102301.78;4216310;28;20044;-68
2022/11/19 06:10:24;;;;;;;1.55;1.27;;;;;;;22.56;34.77;102304.84;4206499;28;20462;-68
2022/11/19 06:12:25;;;;;;;2.58;1.50;;;;;;;22.45;34.66;102281.56;4209411;28;20499;-68
2022/11/19 06:14:27;;;;;;;1.33;1.23;;;;;;;22.46;34.48;102279.63;4216067;28;20467;-68
2022/11/19 06:16:28;;;;;;;2.00;1.52;;;;;;;22.53;34.54;102288.63;4213402;28;20434;-68
2022/11/19 06:18:29;;;;;;;1.48;1.15;;;;;;;22.56;34.66;102288.13;4212094;28;20036;-69
2022/11/19 06:20:33;;;;;;;1.40;1.30;;;;;;;22.55;34.55;102283.66;4200166;28;20376;-68
2022/11/19 06:22:35;;;;;;;1.80;1.52;;;;;;;22.54;34.85;102307.03;4199087;28;20041;-68
2022/11/19 06:24:36;;;;;;;2.47;1.42;;;;;;;22.53;34.91;102295.03;4197718;28;20107;-68
2022/11/19 06:26:38;;;;;;;1.30;1.20;;;;;;;22.53;34.49;102299.78;4199221;28;20037;-68
2022/11/19 06:28:39;;;;;;;1.38;1.15;;;;;;;22.53;34.59;102285.84;4203324;28;20534;-68
2022/11/19 06:30:40;;;;;;;2.63;1.50;;;;;;;22.53;34.45;102299.78;4216443;28;20483;-69
2022/11/19 06:32:42;;;;;;;1.40;1.30;;;;;;;22.52;34.79;102292.53;4216058;28;20040;-68
2022/11/19 06:34:44;;;;;;;1.38;1.27;;;;;;;22.51;34.68;102297.25;4216602;28;20098;-68
2022/11/19 06:36:48;;;;;;;1.50;1.40;;;;;;;22.37;34.91;102270.03;4215750;28;20077;-68
2022/11/19 06:38:50;;;;;;;1.83;1.40;;;;;;;22.49;34.86;102276.28;4216166;28;20073;-68
2022/11/19 06:40:53;;;;;;;1.80;1.63;;;;;;;22.50;34.76;102278.00;4216172;28;20089;-68
2022/11/19 06:42:55;;;;;;;1.60;1.50;;;;;;;22.49;34.94;102273.50;4216168;28;20105;-68
2022/11/19 06:44:56;;;;;;;1.50;1.40;;;;;;;22.48;34.78;102274.63;4216175;28;20050;-68
2022/11/19 06:46:57;;;;;;;1.42;1.15;;;;;;;22.48;34.67;102271.81;4214983;28;20089;-70
2022/11/19 06:48:59;;;;;;;1.20;1.10;;;;;;;22.45;34.93;102287.16;4216103;28;20090;-70
2022/11/19 06:51:03;;;;;;;1.70;1.13;;;;;;;22.47;34.74;102296.09;4216186;28;20463;-68
2022/11/19 06:53:05;;;;;;;1.17;1.08;;;;;;;22.49;34.94;102290.25;4199421;28;20037;-70
2022/11/19 06:55:09;;;;;;;1.80;1.40;;;;;;;22.49;34.75;102281.88;4201616;28;20428;-68
2022/11/19 06:57:10;;;;;;;2.13;1.55;;;;;;;22.47;34.54;102278.50;4207198;28;20101;-68
2022/11/19 06:59:12;;;;;;;1.38;1.20;;;;;;;22.45;34.44;102264.84;4215828;28;20533;-68
2022/11/19 07:01:18;;;;;;;3.35;1.67;;;;;;;22.47;34.80;102281.31;4216148;28;20086;-68
2022/11/19 07:03:23;;;;;;;2.58;1.70;;;;;;;22.45;34.45;102287.16;4215346;28;20101;-67
2022/11/19 07:05:27;;;;;;;;;;;;;;;22.45;34.86;102283.50;4213552;28;20040;-68
2022/11/19 07:07:28;;;;;;;1.70;1.60;;;;;;;22.44;34.41;102267.84;4213856;28;19912;-68
2022/11/19 07:09:29;;;;;;;1.88;1.20;;;;;;;22.50;34.82;102283.59;4215370;28;20036;-67
2022/11/19 07:11:31;;;;;;;2.67;1.38;;;;;;;22.49;34.64;102287.44;4215548;28;20036;-68
2022/11/19 07:15:52;;;;;;;3.28;1.20;;;;;;;22.39;34.40;102273.38;4215929;28;20085;-68
2022/11/19 07:17:53;;;;;;;1.52;1.30;;;;;;;22.44;34.71;102279.03;4214936;28;20036;-68
2022/11/19 07:19:54;;;;;;;1.52;1.20;;;;;;;22.42;34.76;102286.81;4215242;28;20121;-70
2022/11/19 07:21:55;;;;;;;1.60;1.05;;;;;;;22.39;34.71;102270.59;4214720;28;20540;-70
2022/11/19 07:23:58;;;;;;;1.17;1.08;;;;;;;22.41;34.37;102266.44;4215363;28;20432;-68
2022/11/19 07:26:01;;;;;;;1.60;1.50;;;;;;;22.38;34.85;102258.59;4215081;28;20039;-67
2022/11/19 07:28:05;;;;;;;1.20;1.10;;;;;;;22.38;34.66;102263.34;4215626;28;20573;-67
2022/11/19 07:30:13;;;;;;;1.20;1.10;;;;;;;22.37;34.86;102267.22;4215326;28;20437;-70
2022/11/19 07:32:15;;;;;;;1.58;1.40;;;;;;;22.38;34.89;102274.50;4215518;28;20062;-69
2022/11/19 07:34:17;;;;;;;1.70;1.08;;;;;;;22.37;34.76;102267.22;4214693;28;20044;-69
2022/11/19 07:36:18;;;;;;;2.25;1.30;;;;;;;22.24;34.56;102258.13;4214854;28;20093;-70
2022/11/19 07:38:22;;;;;;;1.50;1.17;;;;;;;22.21;34.61;102258.63;4215192;28;20475;-69
2022/11/19 07:40:23;;;;;;;1.40;1.30;;;;;;;22.35;34.75;102277.78;4212886;28;20101;-69
2022/11/19 07:44:44;;;;;;;1.33;1.15;;;;;;;22.35;34.79;102280.56;4199406;28;20066;-69
2022/11/19 07:46:46;;;;;;;2.83;1.20;;;;;;;22.35;34.84;102287.00;4197946;28;20033;-69
2022/11/19 07:48:51;;;;;;;1.48;1.38;;;;;;;22.13;34.88;102256.31;4198309;28;20095;-69
2022/11/19 07:50:53;;;;;;;1.45;1.30;;;;;;;22.30;34.87;102284.97;4198570;28;20044;-69
2022/11/19 07:52:58;;;;;;;1.35;1.25;;;;;;;22.31;34.70;102283.91;4198416;28;20052;-69
2022/11/19 07:55:07;;;;;;;1.25;1.15;;;;;;;22.30;34.82;102287.75;4213174;28;20091;-69
2022/11/19 07:57:10;;;;;;;1.45;1.20;;;;;;;22.30;34.58;102287.75;4214424;28;20040;-69
2022/11/19 07:59:12;;;;;;;1.55;1.45;;;;;;;22.29;34.34;102288.88;4213002;28;20104;-69
2022/11/19 08:01:19;;;;;;;1.27;1.17;;;;;;;22.28;34.69;102292.78;4214708;28;20052;-69
2022/11/19 08:03:21;;;;;;;1.55;1.45;;;;;;;22.27;34.61;102285.50;4214928;28;20024;-68
2022/11/19 08:05:25;;;;;;;1.30;1.20;;;;;;;22.16;34.96;102278.09;4214717;28;20044;-69
2022/11/19 08:07:26;;;;;;;1.60;1.50;;;;;;;22.25;34.88;102289.66;4211638;28;20098;-69
2022/11/19 08:09:27;;;;;;;1.40;1.30;;;;;;;22.26;34.77;102285.75;4214762;28;20445;-69
2022/11/19 08:11:29;;;;;;;2.55;1.20;;;;;;;22.26;34.71;102289.38;4213486;28;20467;-69
2022/11/19 08:13:33;;;;;;;2.08;1.02;;;;;;;22.12;34.57;102271.34;4213846;28;20172;-69
2022/11/19 08:15:35;;;;;;;1.55;1.40;;;;;;;22.23;34.78;102289.91;4206475;28;20056;-69
2022/11/19 08:19:56;;;;;;;1.30;1.20;;;;;;;22.23;34.85;102300.22;4214061;28;20120;-69
2022/11/19 08:21:59;;;;;;;1.40;1.30;;;;;;;22.21;34.54;102297.66;4213630;28;20101;-69
2022/11/19 08:24:02;;;;;;;1.42;1.27;;;;;;;22.19;34.68;102299.06;4214274;28;20086;-68
2022/11/19 08:26:06;;;;;;;1.95;1.77;;;;;;;22.20;34.76;102307.16;4204730;28;20036;-69
2022/11/19 08:28:07;;;;;;;1.90;1.80;;;;;;;22.02;34.49;102287.88;4213418;28;20036;-69
2022/11/19 08:30:09;;;;;;;1.33;1.23;;;;;;;22.19;34.33;102324.16;4214460;28;20035;-69
2022/11/19 08:32:10;;;;;;;1.20;1.10;;;;;;;22.16;34.27;102321.84;4214457;28;20113;-69
2022/11/19 08:34:12;;;;;;;1.50;1.40;;;;;;;22.13;34.10;102333.50;4214335;28;20105;-69
2022/11/19 08:36:13;;;;;;;1.30;1.20;;;;;;;22.10;34.22;102329.28;4214120;28;20047;-69
2022/11/19 08:38:23;;;;;;;1.48;1.23;;;;;;;22.07;34.31;102325.03;4214387;28;20089;-69
2022/11/19 08:40:28;;;;;;;1.50;1.40;;;;;;;22.08;34.46;102339.81;4197911;28;20040;-69
2022/11/19 08:44:53;;;;;;;1.30;1.20;;;;;;;22.10;34.55;102340.44;4204858;28;20097;-69
2022/11/19 08:46:55;;;;;;;2.35;1.10;;;;;;;22.12;34.42;102343.81;4213516;28;20070;-69
2022/11/19 08:48:56;;;;;;;2.30;1.23;;;;;;;22.13;34.43;102351.09;4214263;28;20487;-69
2022/11/19 08:51:03;;;;;;;1.15;1.05;;;;;;;22.14;34.27;102346.38;4214335;28;20036;-69
2022/11/19 08:53:05;;;;;;;1.45;1.10;;;;;;;22.14;33.93;102344.44;4214118;28;20449;-69
2022/11/19 08:55:07;;;;;;;1.30;1.20;;;;;;;22.16;34.04;102346.94;4214619;28;20044;-69
2022/11/19 08:57:14;;;;;;;1.23;1.00;;;;;;;22.16;34.20;102347.78;4214223;28;20083;-69
2022/11/19 08:59:15;;;;;;;1.92;1.30;;;;;;;22.18;34.01;102348.41;4214240;28;20056;-69
2022/11/19 09:01:16;;;;;;;1.38;1.27;;;;;;;22.17;34.29;102355.03;4214260;28;20044;-69
2022/11/19 09:03:18;;;;;;;1.13;0.93;;;;;;;22.19;34.11;102355.66;4214130;28;20089;-70
2022/11/19 09:05:19;;;;;;;1.02;1.02;;;;;;;22.19;33.91;102355.66;4214427;28;20044;-69
2022/11/19 09:07:20;;;;;;;1.63;1.38;;;;;;;22.18;34.32;102359.53;4214188;28;20101;-69
2022/11/19 09:09:22;;;;;;;1.25;1.15;;;;;;;22.19;33.97;102347.28;4213524;28;20086;-68
2022/11/19 09:11:26;;;;;;;1.45;1.13;;;;;;;22.21;34.20;102355.38;4213149;28;20161;-69
2022/11/19 09:13:27;;;;;;;1.33;1.20;;;;;;;22.20;33.86;102357.34;4213398;28;20429;-67
2022/11/19 09:15:28;;;;;;;1.15;1.05;;;;;;;22.19;34.01;102350.06;4214288;28;20040;-68
2022/11/19 09:17:30;;;;;;;1.20;1.10;;;;;;;22.20;33.86;102354.53;4214154;28;20040;-67
2022/11/19 09:19:34;;;;;;;1.67;1.10;;;;;;;22.19;34.01;102355.66;4213809;28;20548;-67
2022/11/19 09:21:35;;;;;;;1.65;1.20;;;;;;;22.21;34.22;102359.00;4214365;28;20498;-68
2022/11/19 09:23:37;;;;;;;1.20;1.10;;;;;;;22.18;33.83;102356.75;4214276;28;20089;-67
2022/11/19 09:25:39;;;;;;;1.30;1.20;;;;;;;22.21;34.16;102359.00;4214084;28;20105;-68
2022/11/19 09:27:43;;;;;;;1.13;1.02;;;;;;;22.21;33.71;102364.59;4213664;28;20040;-69
2022/11/19 09:29:44;;;;;;;0.83;0.83;;;;;;;22.22;33.77;102357.94;4212781;28;20325;-68
2022/11/19 09:31:45;;;;;;;1.30;0.93;;;;;;;22.20;33.98;102357.34;4212560;28;20496;-69
2022/11/19 09:33:51;;;;;;;1.50;1.20;;;;;;;22.15;33.82;102360.03;4211950;28;20044;-69
2022/11/19 09:35:52;;;;;;;1.20;1.10;;;;;;;22.21;33.94;102364.59;4202747;28;20097;-69
2022/11/19 09:37:53;;;;;;;1.33;1.23;;;;;;;22.17;33.67;102359.78;4211404;28;20040;-69
2022/11/19 09:39:55;;;;;;;0.98;0.98;;;;;;;22.21;33.93;102361.81;4211757;28;20046;-69
2022/11/19 09:42:15;;;;;;;1.00;0.90;;;;;;;22.19;34.03;102361.22;4214081;28;20536;-69
2022/11/19 09:44:47;;;;;;;1.10;0.98;;;;;;;22.18;33.88;102359.53;4212727;28;20101;-69
2022/11/19 09:47:15;;;;;;;1.40;1.30;;;;;;;22.20;34.00;102359.28;4210655;28;20048;-68
2022/11/19 09:49:35;;;;;;;2.03;1.00;;;;;;;22.16;33.47;102356.16;4212823;28;20044;-69
2022/11/19 09:51:45;;;;;;;1.10;1.00;;;;;;;22.22;33.71;102363.53;4213839;28;20066;-69
2022/11/19 09:53:54;;;;;;;1.48;0.98;;;;;;;22.22;33.52;102368.22;4213755;28;20047;-68
2022/11/19 09:55:56;;;;;;;2.05;1.00;;;;;;;22.21;33.56;102359.00;4211917;28;20044;-68
2022/11/19 09:57:59;;;;;;;0.80;0.80;;;;;;;22.19;33.53;102361.22;4214487;28;20437;-69
2022/11/19 10:00:03;;;;;;;1.27;1.17;;;;;;;22.17;33.45;102357.84;4214610;28;20040;-69
2022/11/19 10:02:20;;;;;;;1.10;1.00;;;;;;;22.13;33.14;102345.53;4216158;28;20093;-68
2022/11/19 10:04:28;;;;;;;1.30;1.05;;;;;;;22.18;33.15;102358.72;4200591;28;20059;-67
2022/11/19 10:06:34;;;;;;;1.40;1.00;;;;;;;22.13;33.49;102356.69;4199641;28;20094;-69
2022/11/19 10:09:09;;;;;;;1.10;1.00;;;;;;;22.12;33.47;102366.13;4211550;28;20052;-69